Time;durP1;ratioP1;P1;durP2;ratioP2;P2;SDS_P1;SDS_P2;PMS_P1;PMS_P2;Temp;Humidity;BMP_temperature;BMP_pressure;BME280_temperature;BME280_humidity;BME280_pressure;Samples;Min_cycle;Max_cycle;Signal;HPM_P1;HPM_P2
2022/04/20 00:00:36;;;;;;;6.47;5.65;;;;;;;;;;5021268;28;20033;-68
2022/04/20 00:03:03;;;;;;;6.05;5.35;;;;;;;;;;5019524;28;20564;-67
2022/04/20 00:05:32;;;;;;;8.05;5.85;;;;;;;;;;5021346;28;20060;-68
2022/04/20 00:07:57;;;;;;;8.20;6.13;;;;;;;;;;5020220;28;20041;-68
2022/04/20 00:10:23;;;;;;;7.18;5.95;;;;;;;;;;5021240;28;21074;-68
2022/04/20 00:12:48;;;;;;;7.35;5.57;;;;;;;;;;5018426;28;20037;-68
2022/04/20 00:15:14;;;;;;;7.18;6.00;;;;;;;;;;5020542;28;20029;-68
2022/04/20 00:17:39;;;;;;;7.05;5.60;;;;;;;;;;5021534;28;20072;-68
2022/04/20 00:20:05;;;;;;;6.38;5.38;;;;;;;;;;5020751;28;20406;-68
2022/04/20 00:22:31;;;;;;;6.55;5.90;;;;;;;;;;5020624;28;20112;-68
2022/04/20 00:24:56;;;;;;;7.75;5.35;;;;;;;;;;5018978;28;20413;-68
2022/04/20 00:27:21;;;;;;;5.55;4.95;;;;;;;;;;5021186;28;20045;-68
2022/04/20 00:29:47;;;;;;;6.20;5.05;;;;;;;;;;5021374;28;20095;-68
2022/04/20 00:32:13;;;;;;;6.15;5.55;;;;;;;;;;5019421;28;20033;-68
2022/04/20 00:34:38;;;;;;;6.60;5.95;;;;;;;;;;5018319;28;20039;-68
2022/04/20 00:37:04;;;;;;;6.60;5.20;;;;;;;;;;5002668;28;20041;-68
2022/04/20 00:39:30;;;;;;;7.68;6.00;;;;;;;;;;5020610;28;20029;-68
2022/04/20 00:41:56;;;;;;;6.95;5.80;;;;;;;;;;5019483;28;20033;-68
2022/04/20 00:44:24;;;;;;;7.88;5.60;;;;;;;;;;5021256;28;20490;-68
2022/04/20 00:46:51;;;;;;;8.23;6.00;;;;;;;;;;5017269;28;20064;-68
2022/04/20 00:49:17;;;;;;;6.53;5.70;;;;;;;;;;5019444;28;20120;-68
2022/04/20 00:51:57;;;;;;;6.57;5.75;;;;;;;;;;5019743;28;20541;-68
2022/04/20 00:54:24;;;;;;;8.93;6.38;;;;;;;;;;5019906;28;20048;-68
2022/04/20 00:56:50;;;;;;;6.53;5.75;;;;;;;;;;5017613;28;20037;-68
2022/04/20 00:59:22;;;;;;;9.98;7.20;;;;;;;;;;5021280;28;21191;-68
2022/04/20 01:01:49;;;;;;;7.05;6.35;;;;;;;;;;5021566;28;20044;-68
2022/04/20 01:04:15;;;;;;;6.90;6.20;;;;;;;;;;5020179;28;20121;-67
2022/04/20 01:07:14;;;;;;;7.93;6.55;;;;;;;;;;5000556;28;20045;-68
2022/04/20 01:09:52;;;;;;;8.30;6.43;;;;;;;;;;5020314;28;20049;-68
2022/04/20 01:12:44;;;;;;;9.48;7.10;;;;;;;;;;5021114;28;20029;-68
2022/04/20 01:15:32;;;;;;;8.02;6.25;;;;;;;;;;5008733;28;20049;-68
2022/04/20 01:18:16;;;;;;;7.95;6.70;;;;;;;;;;5018675;28;20060;-69
2022/04/20 01:21:02;;;;;;;10.35;7.57;;;;;;;;;;5009709;28;20183;-68
2022/04/20 01:23:31;;;;;;;9.07;7.07;;;;;;;;;;5021440;28;20154;-68
2022/04/20 01:26:09;;;;;;;12.65;8.38;;;;;;;;;;5023649;28;20057;-68
2022/04/20 01:29:06;;;;;;;11.90;8.98;;;;;;;;;;5023478;28;20065;-68
2022/04/20 01:31:36;;;;;;;11.98;9.73;;;;;;;;;;5022183;28;20038;-68
2022/04/20 01:34:20;;;;;;;11.00;8.20;;;;;;;;;;5023879;28;20115;-68
2022/04/20 01:36:47;;;;;;;10.82;9.02;;;;;;;;;;5022647;28;20033;-67
2022/04/20 01:39:12;;;;;;;14.73;9.02;;;;;;;;;;5006615;28;20120;-67
2022/04/20 01:41:38;;;;;;;12.23;9.15;;;;;;;;;;5021684;28;20033;-67
2022/04/20 01:44:04;;;;;;;12.73;8.48;;;;;;;;;;5022670;28;20095;-67
2022/04/20 01:46:50;;;;;;;13.75;8.13;;;;;;;;;;5023007;28;20726;-67
2022/04/20 01:49:40;;;;;;;8.73;7.72;;;;;;;;;;5023090;28;20040;-69
2022/04/20 01:52:20;;;;;;;9.30;8.13;;;;;;;;;;5023178;28;20401;-69
2022/04/20 01:55:17;;;;;;;11.07;8.95;;;;;;;;;;4979499;28;20038;-69
2022/04/20 01:58:01;;;;;;;12.88;8.45;;;;;;;;;;4998462;28;20101;-69
2022/04/20 02:00:43;;;;;;;11.75;8.38;;;;;;;;;;4961154;28;20128;-69
2022/04/20 02:03:35;;;;;;;11.23;8.75;;;;;;;;;;4990805;28;20172;-69
2022/04/20 02:06:10;;;;;;;11.98;9.25;;;;;;;;;;4966840;28;20129;-69
2022/04/20 02:09:03;;;;;;;10.55;8.45;;;;;;;;;;4981733;28;20038;-68
2022/04/20 02:11:47;;;;;;;13.93;9.82;;;;;;;;;;4982247;28;20053;-69
2022/04/20 02:14:31;;;;;;;11.25;8.27;;;;;;;;;;4970212;28;20037;-69
2022/04/20 02:17:07;;;;;;;13.77;9.20;;;;;;;;;;4952842;28;20073;-69
2022/04/20 02:19:36;;;;;;;12.07;9.80;;;;;;;;;;4964876;28;20064;-69
2022/04/20 02:22:28;;;;;;;11.68;9.40;;;;;;;;;;4982011;28;20046;-69
2022/04/20 02:24:53;;;;;;;12.38;9.63;;;;;;;;;;4964296;28;20574;-69
2022/04/20 02:27:19;;;;;;;13.23;9.13;;;;;;;;;;5020131;28;20090;-69
2022/04/20 02:29:44;;;;;;;13.98;10.63;;;;;;;;;;5022569;28;20037;-69
2022/04/20 02:32:10;;;;;;;13.32;9.75;;;;;;;;;;5023253;28;20044;-69
2022/04/20 02:34:37;;;;;;;19.63;13.57;;;;;;;;;;5005509;28;20105;-69
2022/04/20 02:37:03;;;;;;;16.40;11.27;;;;;;;;;;5019374;28;20487;-69
2022/04/20 02:39:29;;;;;;;16.70;12.02;;;;;;;;;;5022858;28;20041;-69
2022/04/20 02:41:54;;;;;;;19.50;12.02;;;;;;;;;;5023672;28;20033;-69
2022/04/20 02:44:20;;;;;;;19.70;13.23;;;;;;;;;;5022879;28;20442;-69
2022/04/20 02:46:46;;;;;;;19.08;13.05;;;;;;;;;;5021728;28;20057;-69
2022/04/20 02:49:11;;;;;;;20.65;11.40;;;;;;;;;;5022951;28;20029;-69
2022/04/20 02:51:37;;;;;;;17.50;12.73;;;;;;;;;;5024088;28;20064;-69
2022/04/20 02:54:04;;;;;;;20.92;14.13;;;;;;;;;;5022033;28;20627;-69
2022/04/20 02:56:32;;;;;;;21.52;15.25;;;;;;;;;;5021872;28;20037;-69
2022/04/20 02:58:57;;;;;;;22.75;14.60;;;;;;;;;;5019480;28;20036;-69
2022/04/20 03:01:23;;;;;;;20.90;13.70;;;;;;;;;;5018128;28;20033;-68
2022/04/20 03:03:50;;;;;;;20.60;15.10;;;;;;;;;;5020930;28;20037;-67
2022/04/20 03:06:22;;;;;;;17.33;13.10;;;;;;;;;;5021094;28;20119;-68
2022/04/20 03:08:48;;;;;;;17.35;12.05;;;;;;;;;;5020685;28;20480;-68
2022/04/20 03:11:15;;;;;;;22.08;14.85;;;;;;;;;;5026785;28;20037;-68
2022/04/20 03:13:45;;;;;;;23.90;16.13;;;;;;;;;;5022799;28;20044;-68
2022/04/20 03:16:10;;;;;;;25.70;17.33;;;;;;;;;;5020027;28;20022;-68
2022/04/20 03:18:37;;;;;;;23.50;14.80;;;;;;;;;;5021418;28;21229;-68
2022/04/20 03:21:14;;;;;;;23.35;15.77;;;;;;;;;;5019986;28;20564;-69
2022/04/20 03:23:40;;;;;;;22.75;16.05;;;;;;;;;;5022373;28;20037;-69
2022/04/20 03:26:08;;;;;;;23.17;15.40;;;;;;;;;;5020488;28;21106;-69
2022/04/20 03:28:56;;;;;;;23.90;15.65;;;;;;;;;;5020634;28;20041;-69
2022/04/20 03:31:22;;;;;;;33.50;19.88;;;;;;;;;;5019102;28;20118;-69
2022/04/20 03:33:47;;;;;;;31.92;19.40;;;;;;;;;;5021089;28;20251;-69
2022/04/20 03:36:13;;;;;;;28.58;18.20;;;;;;;;;;5020290;28;20171;-69
2022/04/20 03:38:38;;;;;;;24.10;15.30;;;;;;;;;;5021190;28;20037;-69
2022/04/20 03:41:04;;;;;;;28.70;18.23;;;;;;;;;;5020473;28;20450;-70
2022/04/20 03:43:31;;;;;;;26.35;16.35;;;;;;;;;;5027641;28;20037;-69
2022/04/20 03:45:56;;;;;;;36.30;24.08;;;;;;;;;;5019853;28;20041;-69
2022/04/20 03:48:22;;;;;;;30.00;17.92;;;;;;;;;;5019977;28;20037;-69
2022/04/20 03:50:48;;;;;;;36.17;21.33;;;;;;;;;;5022071;28;20037;-69
2022/04/20 03:53:14;;;;;;;31.23;19.67;;;;;;;;;;5015825;28;21316;-70
2022/04/20 03:55:40;;;;;;;30.30;18.38;;;;;;;;;;5020511;28;20041;-69
2022/04/20 03:58:06;;;;;;;29.35;19.13;;;;;;;;;;5019608;28;20118;-69
2022/04/20 04:00:32;;;;;;;29.75;19.42;;;;;;;;;;5003400;28;20037;-70
2022/04/20 04:02:58;;;;;;;34.70;20.23;;;;;;;;;;5020369;28;20040;-69
2022/04/20 04:05:29;;;;;;;33.97;21.23;;;;;;;;;;5015008;28;20034;-70
2022/04/20 04:08:05;;;;;;;34.28;18.98;;;;;;;;;;5018304;28;20502;-70
2022/04/20 04:10:33;;;;;;;29.77;18.23;;;;;;;;;;5020408;28;20095;-71
2022/04/20 04:12:59;;;;;;;29.48;17.90;;;;;;;;;;5018091;28;20406;-70
2022/04/20 04:15:26;;;;;;;27.35;16.83;;;;;;;;;;5009389;28;20060;-70
2022/04/20 04:17:54;;;;;;;28.38;16.92;;;;;;;;;;5009327;28;20033;-70
2022/04/20 04:20:22;;;;;;;33.47;20.98;;;;;;;;;;5017788;28;20095;-70
2022/04/20 04:22:50;;;;;;;32.15;19.63;;;;;;;;;;5020031;28;20037;-70
2022/04/20 04:25:27;;;;;;;28.38;18.38;;;;;;;;;;5018526;28;20033;-70
2022/04/20 04:27:52;;;;;;;26.73;17.20;;;;;;;;;;5020384;28;20044;-70
2022/04/20 04:30:20;;;;;;;35.08;21.40;;;;;;;;;;5019998;28;20462;-70
2022/04/20 04:32:57;;;;;;;33.03;20.35;;;;;;;;;;5020271;28;20036;-70
2022/04/20 04:35:23;;;;;;;30.73;18.35;;;;;;;;;;5019890;28;20033;-70
2022/04/20 04:37:50;;;;;;;32.47;19.70;;;;;;;;;;5017543;28;20414;-70
2022/04/20 04:40:19;;;;;;;29.20;18.70;;;;;;;;;;5006426;28;20033;-70
2022/04/20 04:42:45;;;;;;;36.83;22.27;;;;;;;;;;5020190;28;20037;-70
2022/04/20 04:50:44;;;;;;;29.55;18.63;;;;;;;;;;5019708;28;20038;-70
2022/04/20 04:53:10;;;;;;;24.05;14.52;;;;;;;;;;5019380;28;20063;-69
2022/04/20 04:55:35;;;;;;;31.45;19.25;;;;;;;;;;5021207;28;20045;-70
2022/04/20 04:58:02;;;;;;;33.38;19.85;;;;;;;;;;5018754;28;20092;-69
2022/04/20 05:00:28;;;;;;;30.17;19.00;;;;;;;;;;5016884;28;20033;-67
2022/04/20 05:03:17;;;;;;;31.15;18.90;;;;;;;;;;5005958;28;20039;-69
2022/04/20 05:05:44;;;;;;;30.10;18.08;;;;;;;;;;5019789;28;20939;-69
2022/04/20 05:08:10;;;;;;;28.50;19.38;;;;;;;;;;5018854;28;20122;-69
2022/04/20 05:10:36;;;;;;;25.40;17.75;;;;;;;;;;5018287;28;21145;-69
2022/04/20 05:13:04;;;;;;;29.67;19.17;;;;;;;;;;5017857;28;20120;-69
2022/04/20 05:15:31;;;;;;;30.67;18.23;;;;;;;;;;5016991;28;20559;-69
2022/04/20 05:17:57;;;;;;;27.80;18.27;;;;;;;;;;5016533;28;20041;-69
2022/04/20 05:20:22;;;;;;;25.98;17.15;;;;;;;;;;5007225;28;20409;-69
2022/04/20 05:22:49;;;;;;;23.90;16.30;;;;;;;;;;5017344;28;20061;-69
2022/04/20 05:25:16;;;;;;;20.15;13.18;;;;;;;;;;5017554;28;20116;-67
2022/04/20 05:27:42;;;;;;;21.83;15.02;;;;;;;;;;5016502;28;20041;-69
2022/04/20 05:30:15;;;;;;;22.38;16.52;;;;;;;;;;5018724;28;20440;-70
2022/04/20 05:32:42;;;;;;;28.88;19.02;;;;;;;;;;5018259;28;20069;-69
2022/04/20 05:35:14;;;;;;;29.05;18.02;;;;;;;;;;5003750;28;20026;-69
2022/04/20 05:43:15;;;;;;;27.30;17.60;;;;;;;;;;5023946;28;20045;-69
2022/04/20 05:45:41;;;;;;;52.25;15.77;;;;;;;;;;5018573;28;20037;-69
2022/04/20 05:48:19;;;;;;;34.28;16.65;;;;;;;;;;5018545;28;20853;-69
2022/04/20 05:50:45;;;;;;;28.70;18.20;;;;;;;;;;5019524;28;20045;-69
2022/04/20 05:53:11;;;;;;;56.75;17.88;;;;;;;;;;5001318;28;20032;-68
2022/04/20 05:55:36;;;;;;;74.05;15.13;;;;;;;;;;5018954;28;20041;-68
2022/04/20 05:58:02;;;;;;;45.67;16.25;;;;;;;;;;5018547;28;20044;-69
2022/04/20 06:00:30;;;;;;;32.88;17.17;;;;;;;;;;5018953;28;20072;-69
2022/04/20 06:03:16;;;;;;;32.33;16.45;;;;;;;;;;5019515;28;20084;-69
2022/04/20 06:05:42;;;;;;;27.02;18.02;;;;;;;;;;5017451;28;20446;-69
2022/04/20 06:08:34;;;;;;;37.65;16.67;;;;;;;;;;5017057;28;20144;-69
2022/04/20 06:11:06;;;;;;;34.63;16.40;;;;;;;;;;5002983;28;20092;-69
2022/04/20 06:13:32;;;;;;;25.25;12.05;;;;;;;;;;5022813;28;20029;-69
2022/04/20 06:16:21;;;;;;;32.78;16.77;;;;;;;;;;5017405;28;20037;-69
2022/04/20 06:18:52;;;;;;;32.65;18.83;;;;;;;;;;5022339;28;20120;-69
2022/04/20 06:21:26;;;;;;;23.98;11.57;;;;;;;;;;5022287;28;20410;-68
2022/04/20 06:24:05;;;;;;;22.05;13.40;;;;;;;;;;5020400;28;20126;-68
2022/04/20 06:26:41;;;;;;;23.90;15.52;;;;;;;;;;5021109;28;20033;-69
2022/04/20 06:29:20;;;;;;;31.27;17.27;;;;;;;;;;5022443;28;20474;-69
2022/04/20 06:32:18;;;;;;;41.40;14.90;;;;;;;;;;5020785;28;20398;-69
2022/04/20 06:34:59;;;;;;;27.15;15.48;;;;;;;;;;5021528;28;20059;-69
2022/04/20 06:37:36;;;;;;;33.05;16.77;;;;;;;;;;5022609;28;20526;-68
2022/04/20 06:40:26;;;;;;;34.25;18.75;;;;;;;;;;5019562;28;20045;-69
2022/04/20 06:43:27;;;;;;;32.60;17.20;;;;;;;;;;4973335;28;20531;-69
2022/04/20 06:46:19;;;;;;;28.38;14.32;;;;;;;;;;5019468;28;20053;-69
2022/04/20 06:49:03;;;;;;;29.15;16.67;;;;;;;;;;5024941;28;20045;-69
2022/04/20 07:00:09;;;;;;;31.42;18.27;;;;;;;;;;5021716;28;20510;-69
2022/04/20 07:03:01;;;;;;;24.40;13.95;;;;;;;;;;5024356;28;21078;-69
2022/04/20 07:05:45;;;;;;;25.65;14.65;;;;;;;;;;5022946;28;20110;-69
2022/04/20 07:08:30;;;;;;;21.30;13.05;;;;;;;;;;5024490;28;20115;-69
2022/04/20 07:11:04;;;;;;;18.80;11.70;;;;;;;;;;5021637;28;20034;-69
2022/04/20 07:13:31;;;;;;;23.65;13.93;;;;;;;;;;5022923;28;20037;-69
2022/04/20 07:15:56;;;;;;;21.27;14.35;;;;;;;;;;5013585;28;20670;-69
2022/04/20 07:18:23;;;;;;;20.40;12.15;;;;;;;;;;5014104;28;20029;-69
2022/04/20 07:20:59;;;;;;;18.27;10.65;;;;;;;;;;5022224;28;20144;-69
2022/04/20 07:23:42;;;;;;;21.02;13.30;;;;;;;;;;5018843;28;20072;-69
2022/04/20 07:26:43;;;;;;;20.83;11.40;;;;;;;;;;5012702;28;20061;-69
2022/04/20 07:29:13;;;;;;;16.88;9.23;;;;;;;;;;5020442;28;20035;-68
2022/04/20 07:31:56;;;;;;;16.55;10.95;;;;;;;;;;5020610;28;20029;-70
2022/04/20 07:34:44;;;;;;;16.30;10.27;;;;;;;;;;5018839;28;20033;-68
2022/04/20 07:37:32;;;;;;;16.00;10.05;;;;;;;;;;5018252;28;20414;-68
2022/04/20 07:40:17;;;;;;;15.95;11.55;;;;;;;;;;5019578;28;20571;-68
2022/04/20 07:43:01;;;;;;;13.80;9.10;;;;;;;;;;5020134;28;20068;-69
2022/04/20 07:46:02;;;;;;;13.18;8.25;;;;;;;;;;4976462;28;20038;-68
2022/04/20 07:48:51;;;;;;;15.48;10.43;;;;;;;;;;4978450;28;20033;-67
2022/04/20 07:51:44;;;;;;;19.65;11.65;;;;;;;;;;5019678;28;20037;-70
2022/04/20 07:54:34;;;;;;;13.65;10.70;;;;;;;;;;5016695;28;20029;-68
2022/04/20 07:57:17;;;;;;;13.57;9.00;;;;;;;;;;5017804;28;20060;-68
2022/04/20 08:00:19;;;;;;;18.55;11.02;;;;;;;;;;5001532;28;20037;-68
2022/04/20 08:03:17;;;;;;;14.30;9.60;;;;;;;;;;5019696;28;20110;-69
2022/04/20 08:05:49;;;;;;;16.65;10.27;;;;;;;;;;5016568;28;20099;-69
2022/04/20 08:08:16;;;;;;;16.00;10.60;;;;;;;;;;5017712;28;20788;-69
2022/04/20 08:10:42;;;;;;;15.32;10.23;;;;;;;;;;5016559;28;20033;-68
2022/04/20 08:15:56;;;;;;;13.50;9.25;;;;;;;;;;5017794;28;20041;-68
2022/04/20 08:18:25;;;;;;;12.93;9.38;;;;;;;;;;5011846;28;20490;-68
2022/04/20 08:21:10;;;;;;;12.23;8.55;;;;;;;;;;5014702;28;20556;-68
2022/04/20 08:23:36;;;;;;;9.50;6.15;;;;;;;;;;5018761;28;20482;-67
2022/04/20 08:26:01;;;;;;;9.73;7.47;;;;;;;;;;5018295;28;20088;-68
2022/04/20 08:28:27;;;;;;;9.95;6.78;;;;;;;;;;5018340;28;20499;-68
2022/04/20 08:30:53;;;;;;;7.47;5.78;;;;;;;;;;5017182;28;20413;-68
2022/04/20 08:33:18;;;;;;;10.95;7.10;;;;;;;;;;5017974;28;20510;-67
2022/04/20 08:35:44;;;;;;;9.43;7.35;;;;;;;;;;5018144;28;20033;-68
2022/04/20 08:38:09;;;;;;;10.38;7.82;;;;;;;;;;5018721;28;20084;-68
2022/04/20 08:40:34;;;;;;;10.70;7.50;;;;;;;;;;5019152;28;20033;-68
2022/04/20 08:43:02;;;;;;;11.07;7.95;;;;;;;;;;5019720;28;20063;-68
2022/04/20 08:45:28;;;;;;;11.45;6.88;;;;;;;;;;5017393;28;20033;-68
2022/04/20 08:47:56;;;;;;;9.70;7.10;;;;;;;;;;5018780;28;20033;-68
2022/04/20 08:50:23;;;;;;;8.88;6.93;;;;;;;;;;5018526;28;20036;-68
2022/04/20 08:52:50;;;;;;;6.80;6.10;;;;;;;;;;5018833;28;20088;-68
2022/04/20 08:55:18;;;;;;;8.40;6.18;;;;;;;;;;5017264;28;20041;-68
2022/04/20 08:57:47;;;;;;;8.82;6.65;;;;;;;;;;5017170;28;20394;-68
2022/04/20 09:00:25;;;;;;;7.88;6.65;;;;;;;;;;5019097;28;20033;-68
2022/04/20 09:02:52;;;;;;;8.98;6.40;;;;;;;;;;5017541;28;20100;-71
2022/04/20 09:05:19;;;;;;;7.72;5.93;;;;;;;;;;5017147;28;20053;-69
2022/04/20 09:07:45;;;;;;;7.10;5.78;;;;;;;;;;5016946;28;20036;-69
2022/04/20 09:10:10;;;;;;;9.68;5.85;;;;;;;;;;5009311;28;20037;-69
2022/04/20 09:12:42;;;;;;;8.40;5.82;;;;;;;;;;5010787;28;20033;-69
2022/04/20 09:15:09;;;;;;;8.18;5.88;;;;;;;;;;5010233;28;20033;-69
2022/04/20 09:17:40;;;;;;;8.82;5.65;;;;;;;;;;5010900;28;20690;-69
2022/04/20 09:20:07;;;;;;;6.95;5.55;;;;;;;;;;5017284;28;20044;-68
2022/04/20 09:22:34;;;;;;;6.97;5.38;;;;;;;;;;5013258;28;20502;-68
2022/04/20 09:25:15;;;;;;;8.40;5.75;;;;;;;;;;5012876;28;20022;-68
2022/04/20 09:27:42;;;;;;;9.25;5.85;;;;;;;;;;5009733;28;20512;-68
2022/04/20 09:30:14;;;;;;;5.82;5.10;;;;;;;;;;5011581;28;20052;-68
2022/04/20 09:32:45;;;;;;;9.60;6.50;;;;;;;;;;5012659;28;20029;-68
2022/04/20 09:35:13;;;;;;;;;;;;;;;;;;5014934;28;20030;-68
2022/04/20 09:37:41;;;;;;;5.88;4.63;;;;;;;;;;5018770;28;20409;-68
2022/04/20 09:40:32;;;;;;;8.38;5.65;;;;;;;;;;5017266;28;20114;-68
2022/04/20 09:43:19;;;;;;;6.63;5.53;;;;;;;;;;5019402;28;20116;-68
2022/04/20 09:46:01;;;;;;;8.73;6.60;;;;;;;;;;5020615;28;20037;-68
2022/04/20 09:51:14;;;;;;;8.55;6.60;;;;;;;;;;5018581;28;20045;-68
2022/04/20 09:53:41;;;;;;;9.57;6.60;;;;;;;;;;5024902;28;20034;-68
2022/04/20 09:56:24;;;;;;;9.25;7.25;;;;;;;;;;5023113;28;20037;-67
2022/04/20 09:59:03;;;;;;;8.60;6.07;;;;;;;;;;5021243;28;20033;-68
2022/04/20 10:01:35;;;;;;;10.25;7.57;;;;;;;;;;5019639;28;20076;-68
2022/04/20 10:04:03;;;;;;;8.98;7.65;;;;;;;;;;5023428;28;20037;-68
2022/04/20 10:06:29;;;;;;;13.48;8.25;;;;;;;;;;5023506;28;20056;-68
2022/04/20 10:08:55;;;;;;;9.95;7.50;;;;;;;;;;5023347;28;20033;-68
2022/04/20 10:11:24;;;;;;;20.25;7.70;;;;;;;;;;5020681;28;20034;-68
2022/04/20 10:16:39;;;;;;;10.10;7.68;;;;;;;;;;5028976;28;20026;-68
2022/04/20 10:19:11;;;;;;;8.77;7.43;;;;;;;;;;5023673;28;20924;-69
2022/04/20 10:21:51;;;;;;;10.18;8.10;;;;;;;;;;5024194;28;20041;-68
2022/04/20 10:24:20;;;;;;;12.48;7.65;;;;;;;;;;5021996;28;20107;-69
2022/04/20 10:26:48;;;;;;;8.48;7.53;;;;;;;;;;5024443;28;20224;-68
2022/04/20 10:29:19;;;;;;;8.43;6.70;;;;;;;;;;5024785;28;20022;-69
2022/04/20 10:31:52;;;;;;;7.40;6.27;;;;;;;;;;5024172;28;20045;-69
2022/04/20 10:34:21;;;;;;;8.32;5.95;;;;;;;;;;5020582;28;20091;-68
2022/04/20 10:37:17;;;;;;;6.28;5.50;;;;;;;;;;5014541;28;20025;-69
2022/04/20 10:40:11;;;;;;;6.50;5.55;;;;;;;;;;5026420;28;20086;-68
2022/04/20 10:42:36;;;;;;;6.00;5.35;;;;;;;;;;5022157;28;20033;-69
2022/04/20 10:45:05;;;;;;;4.50;4.10;;;;;;;;;;5021704;28;20509;-69
2022/04/20 10:47:41;;;;;;;5.10;4.60;;;;;;;;;;5020398;28;20772;-69
2022/04/20 10:50:23;;;;;;;6.50;4.20;;;;;;;;;;5021554;28;20037;-69
2022/04/20 10:53:03;;;;;;;7.35;4.38;;;;;;;;;;5023635;28;20065;-69
2022/04/20 10:55:32;;;;;;;4.93;4.30;;;;;;;;;;5021841;28;20393;-69
2022/04/20 10:58:03;;;;;;;4.95;4.00;;;;;;;;;;5021708;28;20168;-68
2022/04/20 11:00:33;;;;;;;7.22;4.00;;;;;;;;;;5021665;28;20044;-69
2022/04/20 11:03:07;;;;;;;5.28;3.92;;;;;;;;;;5023014;28;20033;-69
2022/04/20 11:05:48;;;;;;;7.00;4.22;;;;;;;;;;5023283;28;20029;-69
2022/04/20 11:08:16;;;;;;;6.03;4.13;;;;;;;;;;5020955;28;20076;-69
2022/04/20 11:18:38;;;;;;;4.50;4.10;;;;;;;;;;5022845;28;20041;-69
2022/04/20 11:19:15;;;;;;;4.68;4.00;;;;;;;;;;5027072;28;20095;-69
2022/04/20 11:22:08;;;;;;;6.13;3.90;;;;;;;;;;5021046;28;20124;-69
2022/04/20 11:24:34;;;;;;;4.50;4.10;;;;;;;;;;5020654;28;20037;-69
2022/04/20 11:26:59;;;;;;;4.50;4.10;;;;;;;;;;5020669;28;20398;-69
2022/04/20 11:29:27;;;;;;;5.47;4.15;;;;;;;;;;5019210;28;20041;-69
2022/04/20 11:32:01;;;;;;;6.25;4.43;;;;;;;;;;5022261;28;20044;-69
2022/04/20 11:34:38;;;;;;;6.35;3.72;;;;;;;;;;5019731;28;20120;-69
2022/04/20 11:37:06;;;;;;;5.72;4.03;;;;;;;;;;5020936;28;20120;-69
2022/04/20 11:39:32;;;;;;;8.98;4.57;;;;;;;;;;5019090;28;20064;-69
2022/04/20 11:42:00;;;;;;;4.55;4.10;;;;;;;;;;5021079;28;20037;-69
2022/04/20 11:44:36;;;;;;;6.45;3.83;;;;;;;;;;5020623;28;20470;-69
2022/04/20 11:47:08;;;;;;;5.05;3.90;;;;;;;;;;5019007;28;20494;-69
2022/04/20 11:49:40;;;;;;;5.53;3.80;;;;;;;;;;5021576;28;20383;-69
2022/04/20 11:52:09;;;;;;;4.53;3.78;;;;;;;;;;5019520;28;20076;-69
2022/04/20 11:54:36;;;;;;;6.47;3.15;;;;;;;;;;5018725;28;20454;-69
2022/04/20 11:57:10;;;;;;;6.13;4.22;;;;;;;;;;5004317;28;20033;-69
2022/04/20 11:59:46;;;;;;;5.55;3.65;;;;;;;;;;5021664;28;20052;-70
2022/04/20 12:02:13;;;;;;;4.65;3.50;;;;;;;;;;5019921;28;20051;-70
2022/04/20 12:04:39;;;;;;;4.00;3.45;;;;;;;;;;5021192;28;20506;-69
2022/04/20 12:07:05;;;;;;;7.20;4.22;;;;;;;;;;5019959;28;20410;-69
2022/04/20 12:09:33;;;;;;;3.72;3.42;;;;;;;;;;5021644;28;20037;-70
2022/04/20 12:12:05;;;;;;;10.68;3.70;;;;;;;;;;5019763;28;20064;-69
2022/04/20 12:14:32;;;;;;;5.15;3.63;;;;;;;;;;5020951;28;20053;-69
2022/04/20 12:17:03;;;;;;;4.68;3.00;;;;;;;;;;5021079;28;20116;-69
2022/04/20 12:19:35;;;;;;;3.40;3.10;;;;;;;;;;5021860;28;20037;-69
2022/04/20 12:22:05;;;;;;;5.93;2.80;;;;;;;;;;5021650;28;20120;-69
2022/04/20 12:24:31;;;;;;;4.32;3.35;;;;;;;;;;5019670;28;20498;-69
2022/04/20 12:26:58;;;;;;;6.22;3.45;;;;;;;;;;5021460;28;20045;-69
2022/04/20 12:29:27;;;;;;;4.55;3.22;;;;;;;;;;5019555;28;20037;-71
2022/04/20 12:31:57;;;;;;;3.33;3.03;;;;;;;;;;5018192;28;20029;-69
2022/04/20 12:34:30;;;;;;;5.03;3.20;;;;;;;;;;5019415;28;20086;-69
2022/04/20 12:37:08;;;;;;;6.03;3.45;;;;;;;;;;5017617;28;20134;-69
2022/04/20 12:39:39;;;;;;;3.55;2.92;;;;;;;;;;5018507;28;20033;-69
2022/04/20 12:42:05;;;;;;;3.50;3.00;;;;;;;;;;5021011;28;20037;-70
2022/04/20 12:44:36;;;;;;;3.92;2.88;;;;;;;;;;5019642;28;20052;-69
2022/04/20 12:47:08;;;;;;;3.65;2.80;;;;;;;;;;5017826;28;20033;-70
2022/04/20 12:49:37;;;;;;;4.38;3.40;;;;;;;;;;5019086;28;20047;-70
2022/04/20 12:52:12;;;;;;;3.17;2.85;;;;;;;;;;5019336;28;20393;-69
2022/04/20 12:54:38;;;;;;;3.72;3.33;;;;;;;;;;5020641;28;20107;-70
2022/04/20 13:03:04;;;;;;;3.65;2.95;;;;;;;;;;5021089;28;20104;-69
2022/04/20 13:05:35;;;;;;;3.20;2.90;;;;;;;;;;5020660;28;20097;-70
2022/04/20 13:08:02;;;;;;;3.80;2.85;;;;;;;;;;5018988;28;20434;-70
2022/04/20 13:10:31;;;;;;;4.20;3.17;;;;;;;;;;5021154;28;20560;-69
2022/04/20 13:12:57;;;;;;;3.00;2.70;;;;;;;;;;5021029;28;21034;-69
2022/04/20 13:15:29;;;;;;;5.72;2.90;;;;;;;;;;5019581;28;20030;-69
2022/04/20 13:17:57;;;;;;;3.30;2.88;;;;;;;;;;5019177;28;20037;-69
2022/04/20 13:20:22;;;;;;;4.07;3.67;;;;;;;;;;5022161;28;20045;-70
2022/04/20 13:22:48;;;;;;;3.60;3.30;;;;;;;;;;5026277;28;20037;-70
2022/04/20 13:27:58;;;;;;;3.80;2.97;;;;;;;;;;5025596;28;20132;-70
2022/04/20 13:30:25;;;;;;;3.47;3.20;;;;;;;;;;5023150;28;20152;-70
2022/04/20 13:32:56;;;;;;;3.60;2.47;;;;;;;;;;5025344;28;20041;-69
2022/04/20 13:35:22;;;;;;;3.38;2.80;;;;;;;;;;5024099;28;20148;-69
2022/04/20 13:37:48;;;;;;;5.45;2.97;;;;;;;;;;5024500;28;20494;-69
2022/04/20 13:40:14;;;;;;;4.03;2.90;;;;;;;;;;5023042;28;20091;-68
2022/04/20 13:42:39;;;;;;;5.22;3.42;;;;;;;;;;5025744;28;20037;-68
2022/04/20 13:45:06;;;;;;;2.72;2.53;;;;;;;;;;5023068;28;20037;-69
2022/04/20 13:47:33;;;;;;;4.10;3.35;;;;;;;;;;5025661;28;20044;-69
2022/04/20 13:49:59;;;;;;;5.70;2.97;;;;;;;;;;5026331;28;20107;-69
2022/04/20 13:52:25;;;;;;;3.60;2.80;;;;;;;;;;5022755;28;20037;-69
2022/04/20 13:54:50;;;;;;;3.95;3.20;;;;;;;;;;5024945;28;20513;-69
2022/04/20 13:57:16;;;;;;;3.88;3.10;;;;;;;;;;5025012;28;20099;-69
2022/04/20 13:59:41;;;;;;;3.10;2.80;;;;;;;;;;5025213;28;20038;-69
2022/04/20 14:02:08;;;;;;;3.95;3.15;;;;;;;;;;5023272;28;20037;-69
2022/04/20 14:04:33;;;;;;;3.70;3.40;;;;;;;;;;5024532;28;20029;-69
2022/04/20 14:06:59;;;;;;;3.78;2.85;;;;;;;;;;5023766;28;20037;-69
2022/04/20 14:09:24;;;;;;;7.72;2.55;;;;;;;;;;5024688;28;20402;-69
2022/04/20 14:11:50;;;;;;;2.90;2.55;;;;;;;;;;5025425;28;20128;-69
2022/04/20 14:14:15;;;;;;;2.65;2.40;;;;;;;;;;5024008;28;20041;-69
2022/04/20 14:16:42;;;;;;;3.88;2.65;;;;;;;;;;5024354;28;20084;-69
2022/04/20 14:19:10;;;;;;;5.40;2.70;;;;;;;;;;5023925;28;20045;-69
2022/04/20 14:21:36;;;;;;;4.45;2.90;;;;;;;;;;5024816;28;20068;-69
2022/04/20 14:24:02;;;;;;;3.63;2.40;;;;;;;;;;5023602;28;20064;-68
2022/04/20 14:32:12;;;;;;;3.20;2.90;;;;;;;;;;5022297;28;20033;-69
2022/04/20 14:34:39;;;;;;;4.13;3.72;;;;;;;;;;5026582;28;20041;-68
2022/04/20 14:37:12;;;;;;;5.95;3.40;;;;;;;;;;5023033;28;20579;-68
2022/04/20 14:39:39;;;;;;;6.95;3.78;;;;;;;;;;5023997;28;20055;-69
2022/04/20 14:42:05;;;;;;;6.35;3.67;;;;;;;;;;5024126;28;20072;-69
2022/04/20 14:44:31;;;;;;;6.88;3.80;;;;;;;;;;5023493;28;20037;-68
2022/04/20 14:47:00;;;;;;;12.32;3.75;;;;;;;;;;5022652;28;20136;-68
2022/04/20 14:49:27;;;;;;;3.83;3.42;;;;;;;;;;5022922;28;20037;-68
2022/04/20 14:51:53;;;;;;;4.55;3.72;;;;;;;;;;5023364;28;20041;-68
2022/04/20 14:54:18;;;;;;;5.22;3.78;;;;;;;;;;5023926;28;20051;-68
2022/04/20 14:56:44;;;;;;;4.22;3.20;;;;;;;;;;5022487;28;20029;-68
2022/04/20 14:59:09;;;;;;;9.15;3.40;;;;;;;;;;5023015;28;20037;-68
2022/04/20 15:01:35;;;;;;;4.95;3.50;;;;;;;;;;5023233;28;21000;-68
2022/04/20 15:04:02;;;;;;;4.97;4.00;;;;;;;;;;5024163;28;20047;-68
2022/04/20 15:06:29;;;;;;;5.82;4.03;;;;;;;;;;5024154;28;20072;-68
2022/04/20 15:08:56;;;;;;;4.93;3.80;;;;;;;;;;5021247;28;20119;-68
2022/04/20 15:11:22;;;;;;;5.80;3.35;;;;;;;;;;5025590;28;20040;-68
2022/04/20 15:13:48;;;;;;;4.72;3.90;;;;;;;;;;5004503;28;20050;-69
2022/04/20 15:16:24;;;;;;;6.28;3.83;;;;;;;;;;5020933;28;20083;-68
2022/04/20 15:18:50;;;;;;;6.95;4.32;;;;;;;;;;5002491;28;20405;-68
2022/04/20 15:21:15;;;;;;;11.90;7.70;;;;;;;;;;5021495;28;20045;-68
2022/04/20 15:23:41;;;;;;;4.57;3.70;;;;;;;;;;5022874;28;20040;-69
2022/04/20 15:26:07;;;;;;;4.10;3.60;;;;;;;;;;5022947;28;20033;-69
2022/04/20 15:28:33;;;;;;;5.05;4.25;;;;;;;;;;5022562;28;20486;-68
2022/04/20 15:30:58;;;;;;;9.27;3.75;;;;;;;;;;5019924;28;20033;-68
2022/04/20 15:33:24;;;;;;;5.38;3.75;;;;;;;;;;5023283;28;20501;-68
2022/04/20 15:35:52;;;;;;;3.95;3.60;;;;;;;;;;5023256;28;20034;-68
2022/04/20 15:38:18;;;;;;;3.65;3.20;;;;;;;;;;5023368;28;20056;-68
2022/04/20 15:40:47;;;;;;;5.10;3.53;;;;;;;;;;5021264;28;20029;-67
2022/04/20 15:43:17;;;;;;;5.00;3.58;;;;;;;;;;5015098;28;20874;-69
2022/04/20 15:45:43;;;;;;;3.70;3.40;;;;;;;;;;5019304;28;20029;-69